createdAt,value
2023-01-17T00:02:11.476Z,98458.94
2023-01-17T00:04:57.722Z,98471.72
2023-01-17T00:07:44.205Z,98475.28
2023-01-17T00:10:17.406Z,98468.53
2023-01-17T00:12:53.559Z,98462.28
2023-01-17T00:15:23.050Z,98471.97
2023-01-17T00:17:51.286Z,98470.09
2023-01-17T00:20:40.081Z,98472.44
2023-01-17T00:23:37.398Z,98456.88
2023-01-17T00:26:10.289Z,98472.72
2023-01-17T00:28:38.659Z,98462.91
2023-01-17T00:31:07.830Z,98475.31
2023-01-17T00:33:35.321Z,98465.53
2023-01-17T00:36:03.818Z,98474.88
2023-01-17T00:38:34.128Z,98470.38
2023-01-17T00:41:03.897Z,98476.50
2023-01-17T00:43:51.817Z,98459.66
2023-01-17T00:46:38.622Z,98459.72
2023-01-17T00:49:25.751Z,98468.66
2023-01-17T00:52:11.338Z,98458.91
2023-01-17T00:54:57.070Z,98460.38
2023-01-17T00:57:43.168Z,98458.25
2023-01-17T01:00:29.701Z,98462.53
2023-01-17T01:03:15.235Z,98452.19
2023-01-17T01:06:01.113Z,98446.88
2023-01-17T01:08:48.530Z,98448.41
2023-01-17T01:11:36.453Z,98447.59
2023-01-17T01:14:22.947Z,98442.38
2023-01-17T01:17:09.598Z,98434.41
2023-01-17T01:19:55.601Z,98427.56
2023-01-17T01:22:43.016Z,98422.25
2023-01-17T01:25:28.243Z,98416.78
2023-01-17T01:28:25.011Z,98389.72
2023-01-17T01:31:11.209Z,98410.88
2023-01-17T01:33:39.051Z,98399.28
2023-01-17T01:36:09.327Z,98393.84
2023-01-17T01:38:36.824Z,98394.91
2023-01-17T01:41:04.880Z,98385.81
2023-01-17T01:43:43.658Z,98393.91
2023-01-17T01:46:18.895Z,98385.28
2023-01-17T01:49:03.425Z,98390.50
2023-01-17T01:51:35.961Z,98390.38
2023-01-17T01:54:21.282Z,98386.41
2023-01-17T01:56:50.813Z,98372.22
2023-01-17T01:59:20.275Z,98384.63
2023-01-17T02:01:48.453Z,98372.41
2023-01-17T02:04:18.591Z,98380.94
2023-01-17T02:06:50.533Z,98369.63
2023-01-17T02:09:18.897Z,98384.56
2023-01-17T02:11:48.499Z,98383.81
2023-01-17T02:14:17.408Z,98376.00
2023-01-17T02:16:50.918Z,98362.06
2023-01-17T02:19:52.589Z,98369.31
2023-01-17T02:22:28.391Z,98366.81
2023-01-17T02:25:34.182Z,98367.47
2023-01-17T02:28:32.524Z,98351.16
2023-01-17T02:31:09.753Z,98351.75
2023-01-17T02:33:50.770Z,98337.94
2023-01-17T02:36:29.918Z,98338.47
2023-01-17T02:39:02.772Z,98332.72
2023-01-17T02:41:35.765Z,98329.97
2023-01-17T02:44:04.190Z,98324.13
2023-01-17T02:46:31.647Z,98324.91
2023-01-17T02:49:00.779Z,98308.22
2023-01-17T02:52:26.867Z,98323.00
2023-01-17T02:55:12.517Z,98310.09
2023-01-17T02:58:05.340Z,98311.88
2023-01-17T03:00:41.790Z,98313.22
2023-01-17T03:03:35.000Z,98308.41
2023-01-17T03:06:11.880Z,98321.50
2023-01-17T03:08:44.581Z,98295.97
2023-01-17T03:11:13.195Z,98299.19
2023-01-17T03:13:41.541Z,98286.28
2023-01-17T03:16:14.266Z,98299.97
2023-01-17T03:18:42.514Z,98291.25
2023-01-17T03:21:09.613Z,98293.81
2023-01-17T03:23:36.705Z,98291.84
2023-01-17T03:26:04.936Z,98290.03
2023-01-17T03:28:32.209Z,98294.16
2023-01-17T03:30:59.292Z,98290.75
2023-01-17T03:33:26.950Z,98296.59
2023-01-17T03:35:54.850Z,98278.25
2023-01-17T03:38:22.132Z,98278.16
2023-01-17T03:40:49.174Z,98295.44
2023-01-17T03:43:16.134Z,98277.72
2023-01-17T03:45:44.939Z,98285.78
2023-01-17T03:48:12.202Z,98279.66
2023-01-17T03:50:39.436Z,98287.69
2023-01-17T03:53:06.647Z,98278.75
2023-01-17T03:55:33.696Z,98287.53
2023-01-17T03:58:00.828Z,98285.84
2023-01-17T04:00:29.374Z,98295.75
2023-01-17T04:02:56.265Z,98281.81
2023-01-17T04:05:23.363Z,98286.16
2023-01-17T04:07:51.810Z,98270.44
2023-01-17T04:10:19.321Z,98278.81
2023-01-17T04:12:47.149Z,98282.34
2023-01-17T04:15:16.187Z,98292.69
2023-01-17T04:17:44.454Z,98284.00
2023-01-17T04:20:22.269Z,98264.88
2023-01-17T04:22:49.289Z,98265.59
2023-01-17T04:25:16.485Z,98284.56
2023-01-17T04:27:43.588Z,98274.03
2023-01-17T04:30:11.780Z,98280.97
2023-01-17T04:32:38.994Z,98273.06
2023-01-17T04:35:07.255Z,98290.09
2023-01-17T04:37:34.567Z,98288.06
2023-01-17T04:40:03.926Z,98277.53
2023-01-17T04:42:32.065Z,98280.06
2023-01-17T04:45:00.117Z,98286.09
2023-01-17T04:47:27.122Z,98258.88
2023-01-17T04:49:54.539Z,98281.56
2023-01-17T04:52:21.854Z,98277.53
2023-01-17T04:54:49.875Z,98233.72
2023-01-17T04:57:18.473Z,98251.63
2023-01-17T04:59:46.437Z,98271.16
2023-01-17T05:02:14.491Z,98270.03
2023-01-17T05:04:41.802Z,98259.63
2023-01-17T05:07:09.205Z,98263.06
2023-01-17T05:09:36.474Z,98267.34
2023-01-17T05:12:04.633Z,98268.31
2023-01-17T05:14:34.417Z,98263.66
2023-01-17T05:17:03.436Z,98265.84
2023-01-17T05:19:33.909Z,98267.63
2023-01-17T05:22:04.349Z,98260.38
2023-01-17T05:24:32.480Z,98262.38
2023-01-17T05:27:03.266Z,98257.56
2023-01-17T05:29:31.588Z,98268.91
2023-01-17T05:32:00.221Z,98263.66
2023-01-17T05:34:28.551Z,98257.38
2023-01-17T05:36:56.816Z,98258.22
2023-01-17T05:39:24.343Z,98255.59
2023-01-17T05:41:51.608Z,98258.97
2023-01-17T05:44:19.195Z,98260.91
2023-01-17T05:46:46.910Z,98266.06
2023-01-17T05:49:14.363Z,98253.81
2023-01-17T05:51:41.824Z,98269.47
2023-01-17T05:54:09.326Z,98276.28
2023-01-17T05:56:36.954Z,98269.25
2023-01-17T05:59:05.035Z,98278.84
2023-01-17T06:01:32.485Z,98273.81
2023-01-17T06:03:59.595Z,98273.53
2023-01-17T06:06:26.868Z,98277.97
2023-01-17T06:08:54.844Z,98279.56
2023-01-17T06:11:22.361Z,98272.59
2023-01-17T06:13:49.837Z,98271.75
2023-01-17T06:16:16.718Z,98290.94
2023-01-17T06:18:44.030Z,98283.91
2023-01-17T06:21:11.391Z,98232.91
2023-01-17T06:23:38.847Z,98290.03
2023-01-17T06:26:08.493Z,98293.16
2023-01-17T06:28:35.457Z,98287.59
2023-01-17T06:31:07.766Z,98278.44
2023-01-17T06:33:35.595Z,98285.94
2023-01-17T06:36:04.796Z,98289.50
2023-01-17T06:38:32.670Z,98296.28
2023-01-17T06:41:03.759Z,98306.03
2023-01-17T06:43:34.190Z,98291.69
2023-01-17T06:46:02.074Z,98291.53
2023-01-17T06:48:29.580Z,98311.06
2023-01-17T06:50:58.030Z,98306.59
2023-01-17T06:53:28.942Z,98292.34
2023-01-17T06:55:58.098Z,98309.06
2023-01-17T06:58:25.737Z,98305.59
2023-01-17T07:00:53.435Z,98297.75
2023-01-17T07:03:23.723Z,98294.91
2023-01-17T07:05:52.117Z,98299.22
2023-01-17T07:08:20.866Z,98309.84
2023-01-17T07:10:49.457Z,98310.38
2023-01-17T07:13:17.137Z,98296.53
2023-01-17T07:15:45.080Z,98319.44
2023-01-17T07:18:13.030Z,98307.81
2023-01-17T07:20:43.486Z,98314.13
2023-01-17T07:23:11.019Z,98294.47
2023-01-17T07:25:38.629Z,98294.31
2023-01-17T07:28:05.832Z,98292.72
2023-01-17T07:30:34.112Z,98282.06
2023-01-17T07:33:01.885Z,98287.19
2023-01-17T07:35:29.466Z,98293.28
2023-01-17T07:37:56.623Z,98288.31
2023-01-17T07:40:24.645Z,98280.56
2023-01-17T07:42:52.571Z,98297.09
2023-01-17T07:45:21.565Z,98282.22
2023-01-17T07:47:50.266Z,98274.47
2023-01-17T07:50:17.880Z,98270.78
2023-01-17T07:52:50.137Z,98282.00
2023-01-17T07:55:17.413Z,98277.53
2023-01-17T07:57:49.418Z,98279.31
2023-01-17T08:00:17.577Z,98288.78
2023-01-17T08:02:45.298Z,98275.81
2023-01-17T08:05:12.681Z,98268.50
2023-01-17T08:07:40.203Z,98275.66
2023-01-17T08:10:12.522Z,98273.19
2023-01-17T08:12:40.053Z,98275.81
2023-01-17T08:15:07.704Z,98272.19
2023-01-17T08:17:34.948Z,98267.94
2023-01-17T08:20:02.813Z,98280.28
2023-01-17T08:22:31.352Z,98279.06
2023-01-17T08:24:58.900Z,98269.50
2023-01-17T08:27:26.310Z,98264.97
2023-01-17T08:29:53.683Z,98271.84
2023-01-17T08:32:21.736Z,98252.38
2023-01-17T08:34:49.104Z,98256.72
2023-01-17T08:37:16.226Z,98248.06
2023-01-17T08:39:43.384Z,98250.47
2023-01-17T08:42:10.898Z,98253.75
2023-01-17T08:44:40.083Z,98255.19
2023-01-17T08:47:08.079Z,98244.78
2023-01-17T08:49:35.659Z,98233.00
2023-01-17T08:52:03.269Z,98239.00
2023-01-17T08:54:31.041Z,98227.44
2023-01-17T08:56:58.549Z,98222.66
2023-01-17T08:59:26.067Z,98223.34
2023-01-17T09:01:55.780Z,98214.25
2023-01-17T09:04:22.896Z,98207.00
2023-01-17T09:06:50.843Z,98196.25
2023-01-17T09:09:18.613Z,98201.03
2023-01-17T09:11:45.875Z,98204.34
2023-01-17T09:14:14.031Z,98194.31
2023-01-17T09:16:41.484Z,98193.59
2023-01-17T09:19:10.105Z,98198.47
2023-01-17T09:21:37.486Z,98188.34
2023-01-17T09:24:04.912Z,98173.81
2023-01-17T09:26:32.536Z,98188.00
2023-01-17T09:29:00.014Z,98178.25
2023-01-17T09:31:27.856Z,98180.41
2023-01-17T09:33:56.418Z,98165.38
2023-01-17T09:36:24.266Z,98166.16
2023-01-17T09:38:57.443Z,98166.59
2023-01-17T09:41:31.566Z,98164.41
2023-01-17T09:44:28.639Z,98164.97
2023-01-17T09:47:01.815Z,98151.16
2023-01-17T09:49:38.658Z,98162.44
2023-01-17T09:52:08.937Z,98155.69
2023-01-17T09:54:41.069Z,98155.75
2023-01-17T09:57:12.422Z,98144.69
2023-01-17T10:00:02.682Z,98150.50
2023-01-17T10:03:11.017Z,98147.06
2023-01-17T10:06:03.107Z,98137.59
2023-01-17T10:09:18.373Z,98149.38
2023-01-17T10:12:10.224Z,98154.88
2023-01-17T10:14:39.944Z,98159.22
2023-01-17T10:17:19.506Z,98160.56
2023-01-17T10:19:52.694Z,98154.28
2023-01-17T10:22:32.527Z,98157.75
2023-01-17T10:25:27.617Z,98153.53
2023-01-17T10:27:59.270Z,98147.75
2023-01-17T10:30:40.289Z,98142.06
2023-01-17T10:33:19.661Z,98145.66
2023-01-17T10:35:59.955Z,98141.72
2023-01-17T10:38:34.830Z,98128.97
2023-01-17T10:41:11.136Z,98126.34
2023-01-17T10:43:54.047Z,98139.09
2023-01-17T10:46:28.807Z,98123.47
2023-01-17T10:48:57.634Z,98113.91
2023-01-17T10:51:34.028Z,98121.88
2023-01-17T10:54:11.067Z,98116.00
2023-01-17T10:56:40.794Z,98116.53
2023-01-17T10:59:26.161Z,98116.13
2023-01-17T11:01:53.943Z,98124.84
2023-01-17T11:04:54.645Z,98120.00
2023-01-17T11:07:23.416Z,98112.38
2023-01-17T11:09:54.103Z,98108.72
2023-01-17T11:12:37.452Z,98110.50
2023-01-17T11:15:10.827Z,98096.91
2023-01-17T11:17:53.252Z,98092.63
2023-01-17T11:20:44.187Z,98087.78
2023-01-17T11:23:24.560Z,98091.06
2023-01-17T11:25:55.658Z,98085.97
2023-01-17T11:28:26.449Z,98083.28
2023-01-17T11:30:58.060Z,98085.97
2023-01-17T11:33:54.136Z,98082.44
2023-01-17T11:36:32.965Z,98067.56
2023-01-17T11:39:21.568Z,98077.41
2023-01-17T11:41:49.608Z,98075.97
2023-01-17T11:44:30.528Z,98077.00
2023-01-17T11:47:13.212Z,98077.16
2023-01-17T11:49:42.933Z,98084.88
2023-01-17T11:52:11.948Z,98075.97
2023-01-17T11:54:40.808Z,98077.50
2023-01-17T11:57:23.167Z,98079.97
2023-01-17T11:59:55.024Z,98073.25
2023-01-17T12:02:37.727Z,98071.81
2023-01-17T12:05:25.175Z,98066.72
2023-01-17T12:08:10.963Z,98072.75
2023-01-17T12:10:47.222Z,98066.63
2023-01-17T12:13:56.008Z,98071.56
2023-01-17T12:16:48.774Z,98067.31
2023-01-17T12:19:41.685Z,98072.31
2023-01-17T12:22:38.784Z,98073.50
2023-01-17T12:25:27.846Z,98085.56
2023-01-17T12:28:13.675Z,98079.69
2023-01-17T12:30:59.641Z,98081.28
2023-01-17T12:33:46.138Z,98077.31
2023-01-17T12:36:33.261Z,98071.97
2023-01-17T12:39:06.482Z,98070.69
2023-01-17T12:41:57.410Z,98073.25
2023-01-17T12:44:50.400Z,98065.59
2023-01-17T12:47:20.541Z,98069.00
2023-01-17T12:49:57.073Z,98074.94
2023-01-17T12:52:37.642Z,98074.03
2023-01-17T12:55:18.113Z,98060.75
2023-01-17T12:57:56.282Z,98060.00
2023-01-17T13:00:27.178Z,98051.53
2023-01-17T13:03:16.277Z,98055.16
2023-01-17T13:05:47.571Z,98046.84
2023-01-17T13:08:38.919Z,98045.00
2023-01-17T13:11:12.282Z,98038.38
2023-01-17T13:13:41.499Z,98043.81
2023-01-17T13:16:15.388Z,98032.63
2023-01-17T13:18:52.173Z,98042.03
2023-01-17T13:21:34.679Z,98040.19
2023-01-17T13:24:31.734Z,98041.84
2023-01-17T13:27:26.346Z,98042.22
2023-01-17T13:30:18.916Z,98037.22
2023-01-17T13:33:12.636Z,98035.00
2023-01-17T13:36:15.107Z,98033.13
2023-01-17T13:38:58.275Z,98037.63
2023-01-17T13:41:34.681Z,98052.56
2023-01-17T13:44:21.670Z,98035.16
2023-01-17T13:47:01.912Z,98034.50
2023-01-17T13:49:34.359Z,98030.91
2023-01-17T13:52:12.527Z,98029.91
2023-01-17T13:54:45.992Z,98038.97
2023-01-17T13:57:40.226Z,98040.50
2023-01-17T14:00:22.274Z,98033.38
2023-01-17T14:02:52.004Z,98036.09
2023-01-17T14:05:23.694Z,98030.91
2023-01-17T14:07:59.171Z,98039.66
2023-01-17T14:10:46.686Z,98037.88
2023-01-17T14:13:35.645Z,98032.88
2023-01-17T14:16:09.375Z,98032.19
2023-01-17T14:18:36.964Z,98038.13
2023-01-17T14:21:06.589Z,98027.13
2023-01-17T14:23:41.220Z,98032.78
2023-01-17T14:26:22.448Z,98035.25
2023-01-17T14:28:50.060Z,98034.41
2023-01-17T14:31:17.899Z,98027.03
2023-01-17T14:33:45.568Z,98029.91
2023-01-17T14:36:23.872Z,98022.53
2023-01-17T14:38:51.677Z,98031.97
2023-01-17T14:41:29.852Z,98032.03
2023-01-17T14:44:00.207Z,98035.44
2023-01-17T14:46:31.589Z,98039.75
2023-01-17T14:49:06.351Z,98031.47
2023-01-17T14:51:38.724Z,98018.31
2023-01-17T14:54:19.510Z,98021.53
2023-01-17T14:56:46.903Z,98025.00
2023-01-17T14:59:21.387Z,98029.91
2023-01-17T15:02:07.706Z,98024.47
2023-01-17T15:04:40.019Z,98035.75
2023-01-17T15:07:12.882Z,98026.06
2023-01-17T15:09:43.548Z,98032.88
2023-01-17T15:12:14.717Z,98031.66
2023-01-17T15:14:46.596Z,98030.16
2023-01-17T15:17:24.825Z,98035.16
2023-01-17T15:20:01.739Z,98039.84
2023-01-17T15:22:30.147Z,98026.00
2023-01-17T15:24:58.732Z,98034.75
2023-01-17T15:27:26.822Z,98042.38
2023-01-17T15:29:54.571Z,98047.03
2023-01-17T15:32:24.704Z,98042.81
2023-01-17T15:34:53.064Z,98039.91
2023-01-17T15:37:32.889Z,98036.59
2023-01-17T15:40:05.103Z,98037.53
2023-01-17T15:42:34.543Z,98037.22
2023-01-17T15:45:06.404Z,98027.59
2023-01-17T15:47:38.901Z,98031.00
2023-01-17T15:50:24.973Z,98039.91
2023-01-17T15:53:01.268Z,98034.66
2023-01-17T15:55:34.218Z,98049.50
2023-01-17T15:58:03.104Z,98046.44
2023-01-17T16:00:41.320Z,98050.69
2023-01-17T16:03:29.719Z,98056.13
2023-01-17T16:06:00.595Z,98058.56
2023-01-17T16:08:34.554Z,98048.06
2023-01-17T16:11:06.380Z,98051.34
2023-01-17T16:13:47.645Z,98053.47
2023-01-17T16:16:24.406Z,98056.88
2023-01-17T16:19:00.155Z,98054.91
2023-01-17T16:21:30.193Z,98068.06
2023-01-17T16:23:58.672Z,98064.59
2023-01-17T16:26:26.178Z,98075.94
2023-01-17T16:28:53.693Z,98075.53
2023-01-17T16:31:21.135Z,98080.13
2023-01-17T16:33:51.437Z,98088.69
2023-01-17T16:36:21.025Z,98087.00
2023-01-17T16:38:51.220Z,98089.81
2023-01-17T16:41:19.184Z,98079.00
2023-01-17T16:43:48.397Z,98069.28
2023-01-17T16:46:15.817Z,98069.50
2023-01-17T16:48:43.045Z,98071.97
2023-01-17T16:51:10.225Z,98075.78
2023-01-17T16:53:37.766Z,98083.75
2023-01-17T16:56:12.301Z,98086.13
2023-01-17T16:58:41.040Z,98089.81
2023-01-17T17:01:09.978Z,98097.53
2023-01-17T17:03:37.660Z,98106.69
2023-01-17T17:06:04.807Z,98097.38
2023-01-17T17:08:34.074Z,98111.19
2023-01-17T17:11:08.476Z,98113.47
2023-01-17T17:13:36.503Z,98105.16
2023-01-17T17:16:33.018Z,98111.47
2023-01-17T17:19:03.593Z,98121.63
2023-01-17T17:21:32.079Z,98128.06
2023-01-17T17:24:01.032Z,98116.94
2023-01-17T17:26:32.437Z,98132.03
2023-01-17T17:28:59.471Z,98128.78
2023-01-17T17:31:27.465Z,98115.97
2023-01-17T17:33:59.070Z,98124.28
2023-01-17T17:36:26.380Z,98121.91
2023-01-17T17:38:57.894Z,98130.22
2023-01-17T17:41:30.539Z,98122.22
2023-01-17T17:43:57.927Z,98123.09
2023-01-17T17:46:27.049Z,98125.66
2023-01-17T17:48:54.158Z,98119.13
2023-01-17T17:51:27.060Z,98129.25
2023-01-17T17:53:56.253Z,98138.41
2023-01-17T17:56:24.156Z,98152.78
2023-01-17T17:58:51.777Z,98142.09
2023-01-17T18:01:19.184Z,98136.84
2023-01-17T18:03:46.328Z,98135.97
2023-01-17T18:06:13.635Z,98141.06
2023-01-17T18:08:40.648Z,98153.38
2023-01-17T18:11:15.111Z,98160.72
2023-01-17T18:13:42.954Z,98177.25
2023-01-17T18:16:15.755Z,98180.72
2023-01-17T18:18:48.921Z,98182.66
2023-01-17T18:21:23.747Z,98177.66
2023-01-17T18:23:55.244Z,98174.25
2023-01-17T18:26:27.772Z,98178.28
2023-01-17T18:28:56.661Z,98201.47
2023-01-17T18:31:25.397Z,98201.97
2023-01-17T18:33:54.191Z,98218.97
2023-01-17T18:36:25.201Z,98223.91
2023-01-17T18:38:52.771Z,98225.06
2023-01-17T18:41:25.806Z,98220.84
2023-01-17T18:43:53.798Z,98214.75
2023-01-17T18:46:21.104Z,98225.25
2023-01-17T18:48:48.810Z,98226.16
2023-01-17T18:51:17.991Z,98219.28
2023-01-17T18:53:46.473Z,98223.13
2023-01-17T18:56:16.232Z,98219.63
2023-01-17T18:58:45.063Z,98223.41
2023-01-17T19:01:21.156Z,98234.22
2023-01-17T19:03:50.647Z,98230.13
2023-01-17T19:06:23.450Z,98242.53
2023-01-17T19:08:51.996Z,98239.31
2023-01-17T19:11:21.187Z,98246.56
2023-01-17T19:13:52.644Z,98245.94
2023-01-17T19:16:25.787Z,98249.75
2023-01-17T19:18:53.221Z,98241.03
2023-01-17T19:21:25.250Z,98251.91
2023-01-17T19:23:52.474Z,98263.41
2023-01-17T19:26:24.145Z,98252.41
2023-01-17T19:28:51.313Z,98250.78
2023-01-17T19:31:22.697Z,98251.00
2023-01-17T19:33:51.803Z,98249.44
2023-01-17T19:36:22.234Z,98242.63
2023-01-17T19:39:03.495Z,98244.56
2023-01-17T19:41:31.990Z,98250.03
2023-01-17T19:44:03.150Z,98244.97
2023-01-17T19:46:31.132Z,98247.03
2023-01-17T19:48:58.409Z,98252.34
2023-01-17T19:51:29.366Z,98259.56
2023-01-17T19:53:56.889Z,98263.19
2023-01-17T19:56:26.041Z,98261.53
2023-01-17T19:58:53.630Z,98265.44
2023-01-17T20:01:30.383Z,98272.72
2023-01-17T20:03:58.734Z,98273.91
2023-01-17T20:06:32.620Z,98270.38
2023-01-17T20:09:00.058Z,98277.53
2023-01-17T20:11:28.704Z,98283.09
2023-01-17T20:13:57.516Z,98282.44
2023-01-17T20:16:27.533Z,98287.06
2023-01-17T20:18:54.841Z,98290.88
2023-01-17T20:21:28.096Z,98291.19
2023-01-17T20:23:57.289Z,98278.16
2023-01-17T20:26:31.303Z,98276.53
2023-01-17T20:28:58.534Z,98279.41
2023-01-17T20:31:26.952Z,98280.97
2023-01-17T20:33:55.662Z,98280.19
2023-01-17T20:36:25.593Z,98281.22
2023-01-17T20:38:54.525Z,98287.47
2023-01-17T20:41:25.783Z,98290.94
2023-01-17T20:43:55.601Z,98291.97
2023-01-17T20:46:25.413Z,98301.72
2023-01-17T20:48:57.885Z,98302.66
2023-01-17T20:51:27.907Z,98308.06
2023-01-17T20:54:00.938Z,98313.31
2023-01-17T20:56:30.421Z,98314.09
2023-01-17T20:58:58.168Z,98316.88
2023-01-17T21:01:25.248Z,98323.41
2023-01-17T21:03:54.320Z,98319.00
2023-01-17T21:06:23.442Z,98318.72
2023-01-17T21:08:50.998Z,98308.56
2023-01-17T21:11:21.192Z,98309.88
2023-01-17T21:13:51.618Z,98311.53
2023-01-17T21:16:22.609Z,98308.78
2023-01-17T21:18:50.996Z,98306.81
2023-01-17T21:21:22.162Z,98297.22
2023-01-17T21:23:50.976Z,98298.28
2023-01-17T21:26:19.946Z,98293.19
2023-01-17T21:28:48.869Z,98293.38
2023-01-17T21:31:23.778Z,98303.16
2023-01-17T21:33:59.337Z,98293.81
2023-01-17T21:36:38.561Z,98299.44
2023-01-17T21:39:10.631Z,98300.38
2023-01-17T21:41:41.239Z,98306.38
2023-01-17T21:44:13.276Z,98310.09
2023-01-17T21:46:41.374Z,98298.84
2023-01-17T21:49:13.104Z,98300.69
2023-01-17T21:51:53.432Z,98296.88
2023-01-17T21:54:41.370Z,98299.25
2023-01-17T21:57:28.125Z,98293.81
2023-01-17T21:59:55.567Z,98296.97
2023-01-17T22:02:22.605Z,98308.22
2023-01-17T22:04:50.180Z,98306.94
2023-01-17T22:07:17.494Z,98306.75
2023-01-17T22:09:45.121Z,98305.88
2023-01-17T22:12:12.281Z,98302.22
2023-01-17T22:14:39.490Z,98292.56
2023-01-17T22:17:06.612Z,98299.72
2023-01-17T22:19:34.202Z,98294.59
2023-01-17T22:22:01.567Z,98294.81
2023-01-17T22:24:28.811Z,98293.13
2023-01-17T22:26:55.985Z,98304.56
2023-01-17T22:29:23.378Z,98302.06
2023-01-17T22:31:51.041Z,98289.41
2023-01-17T22:34:19.224Z,98294.06
2023-01-17T22:36:46.331Z,98303.13
2023-01-17T22:39:13.741Z,98304.25
2023-01-17T22:41:41.165Z,98297.47
2023-01-17T22:44:08.639Z,98295.22
2023-01-17T22:46:38.635Z,98300.81
2023-01-17T22:49:07.919Z,98289.94
2023-01-17T22:51:35.505Z,98282.44
2023-01-17T22:54:03.153Z,98277.47
2023-01-17T22:56:32.903Z,98291.56
2023-01-17T22:59:01.485Z,98289.06
2023-01-17T23:01:30.562Z,98296.25
2023-01-17T23:04:03.933Z,98291.25
2023-01-17T23:06:35.433Z,98289.69
2023-01-17T23:09:07.123Z,98283.84
2023-01-17T23:11:43.500Z,98289.25
2023-01-17T23:14:19.213Z,98294.59
2023-01-17T23:17:07.608Z,98296.44
2023-01-17T23:19:37.724Z,98296.38
2023-01-17T23:22:16.634Z,98295.59
2023-01-17T23:25:05.195Z,98303.31
2023-01-17T23:27:54.376Z,98300.25
2023-01-17T23:30:34.682Z,98297.16
2023-01-17T23:33:07.899Z,98294.97
2023-01-17T23:35:41.503Z,98298.13
2023-01-17T23:38:29.383Z,98307.16
2023-01-17T23:41:26.911Z,98329.19
2023-01-17T23:43:56.079Z,98328.44
2023-01-17T23:46:25.553Z,98323.41
2023-01-17T23:48:52.968Z,98331.31
2023-01-17T23:51:20.336Z,98332.50
2023-01-17T23:53:47.769Z,98336.09
2023-01-17T23:56:18.851Z,98344.53
2023-01-17T23:58:47.861Z,98332.84
